sensor_id;sensor_type;location;lat;lon;timestamp;pressure;altitude;pressure_sealevel;temperature;humidity
68226;BME280;55045;49.410;11.030;2023-04-10T00:02:41;98818.06;;;3.20;100.00
68226;BME280;55045;49.410;11.030;2023-04-10T00:05:46;98818.78;;;3.39;100.00
68226;BME280;55045;49.410;11.030;2023-04-10T00:08:50;98798.66;;;2.87;100.00
68226;BME280;55045;49.410;11.030;2023-04-10T00:11:54;98763.78;;;2.63;100.00
68226;BME280;55045;49.410;11.030;2023-04-10T00:14:57;98755.25;;;2.64;100.00
68226;BME280;55045;49.410;11.030;2023-04-10T00:18:01;98817.38;;;3.00;100.00
68226;BME280;55045;49.410;11.030;2023-04-10T00:21:05;98790.94;;;2.92;100.00
68226;BME280;55045;49.410;11.030;2023-04-10T00:24:10;98815.75;;;2.88;100.00
68226;BME280;55045;49.410;11.030;2023-04-10T00:27:13;98805.53;;;2.76;100.00
68226;BME280;55045;49.410;11.030;2023-04-10T00:30:17;98801.34;;;2.64;100.00
68226;BME280;55045;49.410;11.030;2023-04-10T00:33:21;98790.34;;;2.50;100.00
68226;BME280;55045;49.410;11.030;2023-04-10T00:36:25;98779.19;;;2.62;100.00
68226;BME280;55045;49.410;11.030;2023-04-10T00:39:30;98801.16;;;2.93;100.00
68226;BME280;55045;49.410;11.030;2023-04-10T00:42:33;98688.16;;;2.12;100.00
68226;BME280;55045;49.410;11.030;2023-04-10T00:45:38;98791.16;;;2.56;100.00
68226;BME280;55045;49.410;11.030;2023-04-10T00:48:43;98785.84;;;2.84;100.00
68226;BME280;55045;49.410;11.030;2023-04-10T00:51:47;98788.66;;;2.47;100.00
68226;BME280;55045;49.410;11.030;2023-04-10T00:54:53;98789.50;;;2.49;100.00
68226;BME280;55045;49.410;11.030;2023-04-10T00:57:57;98775.91;;;2.32;100.00
68226;BME280;55045;49.410;11.030;2023-04-10T01:01:00;98794.56;;;2.57;100.00
68226;BME280;55045;49.410;11.030;2023-04-10T01:04:05;98790.38;;;2.42;100.00
68226;BME280;55045;49.410;11.030;2023-04-10T01:07:15;98798.09;;;2.31;100.00
68226;BME280;55045;49.410;11.030;2023-04-10T01:10:35;98765.00;;;1.96;100.00
68226;BME280;55045;49.410;11.030;2023-04-10T01:13:48;98782.81;;;2.12;100.00
68226;BME280;55045;49.410;11.030;2023-04-10T01:16:57;98799.88;;;2.16;100.00
68226;BME280;55045;49.410;11.030;2023-04-10T01:20:06;98800.78;;;2.06;100.00
68226;BME280;55045;49.410;11.030;2023-04-10T01:23:24;98789.63;;;2.14;100.00
68226;BME280;55045;49.410;11.030;2023-04-10T01:26:55;98785.25;;;2.45;100.00
68226;BME280;55045;49.410;11.030;2023-04-10T01:30:07;98741.03;;;2.10;100.00
68226;BME280;55045;49.410;11.030;2023-04-10T01:33:17;98753.97;;;1.62;100.00
68226;BME280;55045;49.410;11.030;2023-04-10T01:36:24;98681.66;;;1.25;100.00
68226;BME280;55045;49.410;11.030;2023-04-10T01:39:34;98788.00;;;1.92;100.00
68226;BME280;55045;49.410;11.030;2023-04-10T01:42:42;98767.59;;;1.78;100.00
68226;BME280;55045;49.410;11.030;2023-04-10T01:45:50;98775.31;;;1.64;100.00
68226;BME280;55045;49.410;11.030;2023-04-10T01:48:55;98762.56;;;1.54;100.00
68226;BME280;55045;49.410;11.030;2023-04-10T01:52:02;98805.97;;;1.67;100.00
68226;BME280;55045;49.410;11.030;2023-04-10T01:55:08;98787.25;;;1.52;100.00
68226;BME280;55045;49.410;11.030;2023-04-10T01:58:19;98775.34;;;1.40;100.00
68226;BME280;55045;49.410;11.030;2023-04-10T02:01:24;98718.28;;;1.10;100.00
68226;BME280;55045;49.410;11.030;2023-04-10T02:04:32;98764.25;;;1.42;100.00
68226;BME280;55045;49.410;11.030;2023-04-10T02:07:43;98787.25;;;1.52;100.00
68226;BME280;55045;49.410;11.030;2023-04-10T02:10:53;98807.69;;;1.76;100.00
68226;BME280;55045;49.410;11.030;2023-04-10T02:14:00;98807.72;;;1.46;100.00
68226;BME280;55045;49.410;11.030;2023-04-10T02:17:08;98780.41;;;1.60;100.00
68226;BME280;55045;49.410;11.030;2023-04-10T02:20:14;98805.03;;;2.02;100.00
68226;BME280;55045;49.410;11.030;2023-04-10T02:23:21;98760.88;;;1.25;100.00
68226;BME280;55045;49.410;11.030;2023-04-10T02:26:25;98729.38;;;0.90;100.00
68226;BME280;55045;49.410;11.030;2023-04-10T02:29:29;98775.34;;;1.17;100.00
68226;BME280;55045;49.410;11.030;2023-04-10T02:32:33;98808.56;;;1.28;100.00
68226;BME280;55045;49.410;11.030;2023-04-10T02:35:38;98805.16;;;1.21;100.00
68226;BME280;55045;49.410;11.030;2023-04-10T02:38:41;98780.44;;;0.90;100.00
68226;BME280;55045;49.410;11.030;2023-04-10T02:41:46;98819.63;;;1.07;100.00
68226;BME280;55045;49.410;11.030;2023-04-10T02:44:50;98798.31;;;0.91;100.00
68226;BME280;55045;49.410;11.030;2023-04-10T02:47:55;98789.81;;;0.86;100.00
68226;BME280;55045;49.410;11.030;2023-04-10T02:50:59;98816.22;;;0.99;100.00
68226;BME280;55045;49.410;11.030;2023-04-10T02:54:03;98765.97;;;0.73;100.00
68226;BME280;55045;49.410;11.030;2023-04-10T02:57:08;98805.16;;;1.06;100.00
68226;BME280;55045;49.410;11.030;2023-04-10T03:00:14;98745.53;;;0.64;100.00
68226;BME280;55045;49.410;11.030;2023-04-10T03:03:45;98806.84;;;0.93;100.00
68226;BME280;55045;49.410;11.030;2023-04-10T03:06:57;98810.28;;;1.03;100.00
68226;BME280;55045;49.410;11.030;2023-04-10T03:10:01;98760.81;;;0.60;100.00
68226;BME280;55045;49.410;11.030;2023-04-10T03:13:04;98794.88;;;0.69;100.00
68226;BME280;55045;49.410;11.030;2023-04-10T03:16:09;98806.81;;;0.75;100.00
68226;BME280;55045;49.410;11.030;2023-04-10T03:19:15;98814.47;;;0.70;100.00
68226;BME280;55045;49.410;11.030;2023-04-10T03:22:19;98737.75;;;0.11;100.00
68226;BME280;55045;49.410;11.030;2023-04-10T03:25:23;98732.69;;;0.21;100.00
68226;BME280;55045;49.410;11.030;2023-04-10T03:28:26;98779.53;;;0.48;100.00
68226;BME280;55045;49.410;11.030;2023-04-10T03:34:59;98809.38;;;0.89;100.00
68226;BME280;55045;49.410;11.030;2023-04-10T03:38:02;98812.75;;;0.65;100.00
68226;BME280;55045;49.410;11.030;2023-04-10T03:41:05;98803.38;;;0.57;100.00
68226;BME280;55045;49.410;11.030;2023-04-10T03:44:09;98804.22;;;0.52;100.00
68226;BME280;55045;49.410;11.030;2023-04-10T03:47:13;98803.34;;;0.48;100.00
68226;BME280;55045;49.410;11.030;2023-04-10T03:50:23;98805.03;;;0.43;100.00
68226;BME280;55045;49.410;11.030;2023-04-10T03:53:32;98798.25;;;0.42;100.00
68226;BME280;55045;49.410;11.030;2023-04-10T03:56:41;98801.66;;;0.50;100.00
68226;BME280;55045;49.410;11.030;2023-04-10T03:59:45;98795.72;;;0.53;100.00
68226;BME280;55045;49.410;11.030;2023-04-10T04:02:49;98801.66;;;0.43;100.00
68226;BME280;55045;49.410;11.030;2023-04-10T04:06:19;98804.16;;;0.34;100.00
68226;BME280;55045;49.410;11.030;2023-04-10T04:09:57;98802.50;;;0.51;100.00
68226;BME280;55045;49.410;11.030;2023-04-10T04:13:33;98803.28;;;0.28;100.00
68226;BME280;55045;49.410;11.030;2023-04-10T04:16:46;98796.53;;;0.50;100.00
68226;BME280;55045;49.410;11.030;2023-04-10T04:20:08;98799.88;;;0.23;100.00
68226;BME280;55045;49.410;11.030;2023-04-10T04:23:18;98789.66;;;0.28;100.00
68226;BME280;55045;49.410;11.030;2023-04-10T04:26:47;98797.28;;;0.20;100.00
68226;BME280;55045;49.410;11.030;2023-04-10T04:30:11;98803.28;;;0.22;100.00
68226;BME280;55045;49.410;11.030;2023-04-10T04:33:29;98802.44;;;0.23;100.00
68226;BME280;55045;49.410;11.030;2023-04-10T04:36:36;98809.34;;;0.55;100.00
68226;BME280;55045;49.410;11.030;2023-04-10T04:40:15;98810.94;;;0.22;100.00
68226;BME280;55045;49.410;11.030;2023-04-10T04:43:51;98814.28;;;0.18;100.00
68226;BME280;55045;49.410;11.030;2023-04-10T04:47:17;98817.69;;;0.11;100.00
68226;BME280;55045;49.410;11.030;2023-04-10T04:50:39;98814.19;;;-0.03;100.00
68226;BME280;55045;49.410;11.030;2023-04-10T04:54:00;98817.59;;;-0.07;100.00
68226;BME280;55045;49.410;11.030;2023-04-10T04:57:11;98816.72;;;-0.08;100.00
68226;BME280;55045;49.410;11.030;2023-04-10T05:00:27;98823.53;;;-0.08;100.00
68226;BME280;55045;49.410;11.030;2023-04-10T05:03:38;98829.50;;;-0.02;100.00
68226;BME280;55045;49.410;11.030;2023-04-10T05:07:01;98812.44;;;-0.15;100.00
68226;BME280;55045;49.410;11.030;2023-04-10T05:10:30;98847.41;;;0.05;100.00
68226;BME280;55045;49.410;11.030;2023-04-10T05:14:10;98846.59;;;0.15;100.00
68226;BME280;55045;49.410;11.030;2023-04-10T05:17:32;98845.75;;;0.19;100.00
68226;BME280;55045;49.410;11.030;2023-04-10T05:20:58;98847.53;;;0.35;100.00
68226;BME280;55045;49.410;11.030;2023-04-10T05:24:25;98845.97;;;0.75;100.00
68226;BME280;55045;49.410;11.030;2023-04-10T05:27:50;98843.44;;;0.84;100.00
68226;BME280;55045;49.410;11.030;2023-04-10T05:31:04;98830.69;;;0.98;100.00
68226;BME280;55045;49.410;11.030;2023-04-10T05:34:25;98831.56;;;1.08;100.00
68226;BME280;55045;49.410;11.030;2023-04-10T05:37:45;98824.75;;;1.28;100.00
68226;BME280;55045;49.410;11.030;2023-04-10T05:41:20;98826.47;;;1.37;100.00
68226;BME280;55045;49.410;11.030;2023-04-10T05:44:48;98825.59;;;1.46;100.00
68226;BME280;55045;49.410;11.030;2023-04-10T05:48:29;98817.91;;;1.59;100.00
68226;BME280;55045;49.410;11.030;2023-04-10T05:51:46;98820.44;;;1.79;100.00
68226;BME280;55045;49.410;11.030;2023-04-10T05:55:02;98824.69;;;1.89;100.00
68226;BME280;55045;49.410;11.030;2023-04-10T05:58:24;98822.91;;;2.16;100.00
68226;BME280;55045;49.410;11.030;2023-04-10T06:01:50;98822.88;;;2.28;100.00
68226;BME280;55045;49.410;11.030;2023-04-10T06:04:55;98816.03;;;2.36;100.00
68226;BME280;55045;49.410;11.030;2023-04-10T06:07:58;98826.09;;;2.70;100.00
68226;BME280;55045;49.410;11.030;2023-04-10T06:11:03;98809.50;;;3.23;100.00
68226;BME280;55045;49.410;11.030;2023-04-10T06:14:06;98803.41;;;3.39;100.00
68226;BME280;55045;49.410;11.030;2023-04-10T06:17:15;98794.69;;;3.55;100.00
68226;BME280;55045;49.410;11.030;2023-04-10T06:20:20;98775.44;;;3.97;100.00
68226;BME280;55045;49.410;11.030;2023-04-10T06:23:24;98797.44;;;4.18;100.00
68226;BME280;55045;49.410;11.030;2023-04-10T06:26:28;98784.38;;;4.40;100.00
68226;BME280;55045;49.410;11.030;2023-04-10T06:29:32;98777.59;;;4.32;100.00
68226;BME280;55045;49.410;11.030;2023-04-10T06:32:35;98795.25;;;4.57;100.00
68226;BME280;55045;49.410;11.030;2023-04-10T06:35:40;98787.25;;;5.34;100.00
68226;BME280;55045;49.410;11.030;2023-04-10T06:38:44;98781.75;;;6.01;100.00
68226;BME280;55045;49.410;11.030;2023-04-10T06:41:47;98774.72;;;6.11;100.00
68226;BME280;55045;49.410;11.030;2023-04-10T06:45:04;98784.31;;;6.04;100.00
68226;BME280;55045;49.410;11.030;2023-04-10T06:48:07;98775.34;;;6.24;100.00
68226;BME280;55045;49.410;11.030;2023-04-10T06:51:12;98782.97;;;6.69;100.00
68226;BME280;55045;49.410;11.030;2023-04-10T06:54:15;98769.38;;;6.99;100.00
68226;BME280;55045;49.410;11.030;2023-04-10T06:57:18;98776.19;;;7.02;100.00
68226;BME280;55045;49.410;11.030;2023-04-10T07:00:22;98779.81;;;6.93;100.00
68226;BME280;55045;49.410;11.030;2023-04-10T07:03:25;98789.53;;;6.82;100.00
68226;BME280;55045;49.410;11.030;2023-04-10T07:06:30;98779.59;;;7.02;100.00
68226;BME280;55045;49.410;11.030;2023-04-10T07:09:33;98781.72;;;7.22;100.00
68226;BME280;55045;49.410;11.030;2023-04-10T07:12:36;98784.72;;;7.73;100.00
68226;BME280;55045;49.410;11.030;2023-04-10T07:15:39;98779.53;;;8.07;100.00
68226;BME280;55045;49.410;11.030;2023-04-10T07:18:43;98780.97;;;8.16;100.00
68226;BME280;55045;49.410;11.030;2023-04-10T07:21:49;98786.78;;;8.24;100.00
68226;BME280;55045;49.410;11.030;2023-04-10T07:24:52;98783.09;;;8.34;100.00
68226;BME280;55045;49.410;11.030;2023-04-10T07:27:55;98777.16;;;8.60;100.00
68226;BME280;55045;49.410;11.030;2023-04-10T07:30:59;98771.31;;;8.54;100.00
68226;BME280;55045;49.410;11.030;2023-04-10T07:34:02;98764.97;;;8.64;100.00
68226;BME280;55045;49.410;11.030;2023-04-10T07:37:07;98762.84;;;9.05;100.00
68226;BME280;55045;49.410;11.030;2023-04-10T07:40:10;98753.22;;;9.10;100.00
68226;BME280;55045;49.410;11.030;2023-04-10T07:43:14;98741.44;;;10.02;100.00
68226;BME280;55045;49.410;11.030;2023-04-10T07:46:17;98742.34;;;9.76;100.00
68226;BME280;55045;49.410;11.030;2023-04-10T07:49:21;98742.31;;;10.26;100.00
68226;BME280;55045;49.410;11.030;2023-04-10T07:52:26;98734.22;;;11.01;100.00
68226;BME280;55045;49.410;11.030;2023-04-10T07:55:35;98729.66;;;11.28;100.00
68226;BME280;55045;49.410;11.030;2023-04-10T07:58:39;98730.50;;;11.49;100.00
68226;BME280;55045;49.410;11.030;2023-04-10T08:01:42;98733.06;;;11.08;100.00
68226;BME280;55045;49.410;11.030;2023-04-10T08:04:45;98738.34;;;10.85;100.00
68226;BME280;55045;49.410;11.030;2023-04-10T08:07:50;98731.91;;;11.15;100.00
68226;BME280;55045;49.410;11.030;2023-04-10T08:10:53;98721.91;;;11.06;100.00
68226;BME280;55045;49.410;11.030;2023-04-10T08:13:58;98726.84;;;11.33;100.00
68226;BME280;55045;49.410;11.030;2023-04-10T08:17:02;98732.59;;;11.61;100.00
68226;BME280;55045;49.410;11.030;2023-04-10T08:20:08;98731.44;;;11.48;100.00
68226;BME280;55045;49.410;11.030;2023-04-10T08:23:12;98733.72;;;11.13;100.00
68226;BME280;55045;49.410;11.030;2023-04-10T08:26:22;98734.47;;;11.37;100.00
68226;BME280;55045;49.410;11.030;2023-04-10T08:29:26;98735.72;;;11.49;100.00
68226;BME280;55045;49.410;11.030;2023-04-10T08:32:30;98723.50;;;11.31;100.00
68226;BME280;55045;49.410;11.030;2023-04-10T08:35:33;98720.09;;;11.08;100.00
68226;BME280;55045;49.410;11.030;2023-04-10T08:38:38;98723.19;;;11.38;100.00
68226;BME280;55045;49.410;11.030;2023-04-10T08:41:41;98721.94;;;11.67;100.00
68226;BME280;55045;49.410;11.030;2023-04-10T08:44:47;98723.16;;;11.99;100.00
68226;BME280;55045;49.410;11.030;2023-04-10T08:47:51;98723.09;;;11.60;100.00
68226;BME280;55045;49.410;11.030;2023-04-10T08:50:59;98719.88;;;11.75;100.00
68226;BME280;55045;49.410;11.030;2023-04-10T08:54:06;98709.06;;;11.85;100.00
68226;BME280;55045;49.410;11.030;2023-04-10T08:57:12;98714.09;;;11.89;100.00
68226;BME280;55045;49.410;11.030;2023-04-10T09:00:19;98709.94;;;12.04;97.61
68226;BME280;55045;49.410;11.030;2023-04-10T09:03:25;98717.38;;;11.93;100.00
68226;BME280;55045;49.410;11.030;2023-04-10T09:06:29;98712.91;;;12.15;100.00
68226;BME280;55045;49.410;11.030;2023-04-10T09:09:34;98707.72;;;12.34;96.29
68226;BME280;55045;49.410;11.030;2023-04-10T09:12:44;98710.13;;;12.38;94.08
68226;BME280;55045;49.410;11.030;2023-04-10T09:15:54;98692.94;;;12.72;92.41
68226;BME280;55045;49.410;11.030;2023-04-10T09:18:59;98696.88;;;12.62;93.02
68226;BME280;55045;49.410;11.030;2023-04-10T09:22:05;98684.19;;;12.73;90.16
68226;BME280;55045;49.410;11.030;2023-04-10T09:25:27;98689.84;;;13.17;91.18
68226;BME280;55045;49.410;11.030;2023-04-10T09:28:31;98690.97;;;12.77;93.03
68226;BME280;55045;49.410;11.030;2023-04-10T09:34:58;98679.44;;;12.64;89.14
68226;BME280;55045;49.410;11.030;2023-04-10T09:38:13;98660.50;;;13.14;91.50
68226;BME280;55045;49.410;11.030;2023-04-10T09:41:17;98667.94;;;13.04;90.42
68226;BME280;55045;49.410;11.030;2023-04-10T09:44:28;98654.84;;;12.88;90.03
68226;BME280;55045;49.410;11.030;2023-04-10T09:47:32;98660.09;;;12.69;90.23
68226;BME280;55045;49.410;11.030;2023-04-10T09:50:37;98653.97;;;12.71;89.42
68226;BME280;55045;49.410;11.030;2023-04-10T09:53:47;98652.84;;;12.93;89.89
68226;BME280;55045;49.410;11.030;2023-04-10T09:56:51;98649.03;;;13.35;84.99
68226;BME280;55045;49.410;11.030;2023-04-10T09:59:59;98643.88;;;13.84;84.31
68226;BME280;55045;49.410;11.030;2023-04-10T10:03:08;98631.53;;;13.54;85.88
68226;BME280;55045;49.410;11.030;2023-04-10T10:06:14;98625.94;;;13.62;86.27
68226;BME280;55045;49.410;11.030;2023-04-10T10:09:17;98631.41;;;13.06;80.48
68226;BME280;55045;49.410;11.030;2023-04-10T10:12:23;98619.34;;;13.22;86.78
68226;BME280;55045;49.410;11.030;2023-04-10T10:15:33;98616.25;;;13.31;85.18
68226;BME280;55045;49.410;11.030;2023-04-10T10:18:43;98606.31;;;13.55;78.82
68226;BME280;55045;49.410;11.030;2023-04-10T10:21:49;98605.78;;;13.48;81.19
68226;BME280;55045;49.410;11.030;2023-04-10T10:24:54;98599.38;;;13.04;82.41
68226;BME280;55045;49.410;11.030;2023-04-10T10:27:59;98602.44;;;13.46;82.26
68226;BME280;55045;49.410;11.030;2023-04-10T10:31:05;98597.94;;;13.33;82.92
68226;BME280;55045;49.410;11.030;2023-04-10T10:34:09;98586.47;;;13.52;83.58
68226;BME280;55045;49.410;11.030;2023-04-10T10:37:14;98578.38;;;13.41;81.02
68226;BME280;55045;49.410;11.030;2023-04-10T10:40:22;98582.28;;;13.66;82.54
68226;BME280;55045;49.410;11.030;2023-04-10T10:43:35;98576.78;;;13.39;81.27
68226;BME280;55045;49.410;11.030;2023-04-10T10:46:43;98570.84;;;13.68;84.39
68226;BME280;55045;49.410;11.030;2023-04-10T10:49:50;98574.75;;;14.08;81.87
68226;BME280;55045;49.410;11.030;2023-04-10T10:52:55;98583.00;;;13.85;81.08
68226;BME280;55045;49.410;11.030;2023-04-10T10:56:32;98557.19;;;13.47;81.36
68226;BME280;55045;49.410;11.030;2023-04-10T10:59:55;98550.53;;;14.22;83.02
68226;BME280;55045;49.410;11.030;2023-04-10T11:03:25;98550.28;;;14.11;73.06
68226;BME280;55045;49.410;11.030;2023-04-10T11:06:49;98515.22;;;13.85;71.42
68226;BME280;55045;49.410;11.030;2023-04-10T11:09:54;98541.59;;;13.79;74.61
68226;BME280;55045;49.410;11.030;2023-04-10T11:13:14;98537.56;;;13.89;82.45
68226;BME280;55045;49.410;11.030;2023-04-10T11:16:19;98531.56;;;14.19;81.41
68226;BME280;55045;49.410;11.030;2023-04-10T11:19:22;98528.31;;;14.15;73.36
68226;BME280;55045;49.410;11.030;2023-04-10T11:22:27;98523.00;;;14.17;71.15
68226;BME280;55045;49.410;11.030;2023-04-10T11:25:46;98515.97;;;14.49;70.43
68226;BME280;55045;49.410;11.030;2023-04-10T11:28:50;98522.66;;;14.23;70.81
68226;BME280;55045;49.410;11.030;2023-04-10T11:31:54;98519.84;;;14.41;69.44
68226;BME280;55045;49.410;11.030;2023-04-10T11:34:58;98514.66;;;14.26;70.69
68226;BME280;55045;49.410;11.030;2023-04-10T11:38:12;98505.78;;;13.98;66.79
68226;BME280;55045;49.410;11.030;2023-04-10T11:41:17;98520.34;;;14.48;70.92
68226;BME280;55045;49.410;11.030;2023-04-10T11:44:27;98508.09;;;14.64;70.02
68226;BME280;55045;49.410;11.030;2023-04-10T11:47:31;98504.81;;;14.61;69.05
68226;BME280;55045;49.410;11.030;2023-04-10T11:50:34;98509.41;;;14.41;67.76
68226;BME280;55045;49.410;11.030;2023-04-10T11:53:38;98497.00;;;14.31;71.01
68226;BME280;55045;49.410;11.030;2023-04-10T11:56:44;98487.16;;;14.20;68.72
68226;BME280;55045;49.410;11.030;2023-04-10T11:59:49;98486.06;;;14.08;70.25
68226;BME280;55045;49.410;11.030;2023-04-10T12:02:52;98487.31;;;14.63;66.72
68226;BME280;55045;49.410;11.030;2023-04-10T12:05:56;98474.19;;;14.19;65.74
68226;BME280;55045;49.410;11.030;2023-04-10T12:08:59;98476.16;;;13.99;66.58
68226;BME280;55045;49.410;11.030;2023-04-10T12:12:05;98475.63;;;14.24;66.59
68226;BME280;55045;49.410;11.030;2023-04-10T12:15:25;98476.13;;;14.15;66.27
68226;BME280;55045;49.410;11.030;2023-04-10T12:18:29;98469.59;;;14.08;65.39
68226;BME280;55045;49.410;11.030;2023-04-10T12:21:34;98472.09;;;14.09;70.75
68226;BME280;55045;49.410;11.030;2023-04-10T12:24:42;98461.06;;;14.50;64.13
68226;BME280;55045;49.410;11.030;2023-04-10T12:27:48;98462.25;;;14.15;64.99
68226;BME280;55045;49.410;11.030;2023-04-10T12:30:52;98456.19;;;14.44;73.88
68226;BME280;55045;49.410;11.030;2023-04-10T12:33:56;98455.06;;;14.34;63.48
68226;BME280;55045;49.410;11.030;2023-04-10T12:36:59;98445.66;;;14.76;66.57
68226;BME280;55045;49.410;11.030;2023-04-10T12:40:04;98452.00;;;14.86;64.72
68226;BME280;55045;49.410;11.030;2023-04-10T12:43:09;98442.31;;;14.74;67.56
68226;BME280;55045;49.410;11.030;2023-04-10T12:46:22;98444.44;;;14.37;62.65
68226;BME280;55045;49.410;11.030;2023-04-10T12:49:25;98426.59;;;14.45;66.08
68226;BME280;55045;49.410;11.030;2023-04-10T12:52:28;98423.34;;;14.56;60.73
68226;BME280;55045;49.410;11.030;2023-04-10T12:55:32;98414.78;;;14.54;65.83
68226;BME280;55045;49.410;11.030;2023-04-10T12:58:37;98414.28;;;14.47;69.55
68226;BME280;55045;49.410;11.030;2023-04-10T13:01:40;98403.88;;;14.76;68.78
68226;BME280;55045;49.410;11.030;2023-04-10T13:04:43;98409.66;;;14.66;63.51
68226;BME280;55045;49.410;11.030;2023-04-10T13:07:48;98398.84;;;14.87;70.40
68226;BME280;55045;49.410;11.030;2023-04-10T13:10:53;98387.09;;;14.65;62.43
68226;BME280;55045;49.410;11.030;2023-04-10T13:14:00;98392.38;;;14.50;64.44
68226;BME280;55045;49.410;11.030;2023-04-10T13:17:03;98390.41;;;15.10;67.27
68226;BME280;55045;49.410;11.030;2023-04-10T13:20:08;98382.63;;;14.82;69.27
68226;BME280;55045;49.410;11.030;2023-04-10T13:23:11;98383.16;;;15.01;64.31
68226;BME280;55045;49.410;11.030;2023-04-10T13:26:15;98373.44;;;15.17;61.14
68226;BME280;55045;49.410;11.030;2023-04-10T13:29:20;98369.34;;;14.99;59.06
68226;BME280;55045;49.410;11.030;2023-04-10T13:32:23;98354.63;;;14.69;59.77
68226;BME280;55045;49.410;11.030;2023-04-10T13:35:26;98349.59;;;14.81;58.91
68226;BME280;55045;49.410;11.030;2023-04-10T13:38:29;98349.22;;;14.87;59.37
68226;BME280;55045;49.410;11.030;2023-04-10T13:41:32;98351.81;;;15.01;67.34
68226;BME280;55045;49.410;11.030;2023-04-10T13:44:37;98349.69;;;15.35;61.96
68226;BME280;55045;49.410;11.030;2023-04-10T13:47:40;98340.59;;;15.54;60.96
68226;BME280;55045;49.410;11.030;2023-04-10T13:50:43;98339.22;;;15.08;58.95
68226;BME280;55045;49.410;11.030;2023-04-10T13:53:46;98327.47;;;15.01;60.16
68226;BME280;55045;49.410;11.030;2023-04-10T13:56:50;98324.00;;;15.00;60.66
68226;BME280;55045;49.410;11.030;2023-04-10T13:59:56;98303.75;;;14.62;59.64
68226;BME280;55045;49.410;11.030;2023-04-10T14:03:00;98308.75;;;14.94;64.33
68226;BME280;55045;49.410;11.030;2023-04-10T14:06:03;98300.59;;;15.13;64.90
68226;BME280;55045;49.410;11.030;2023-04-10T14:09:07;98302.75;;;15.06;60.39
68226;BME280;55045;49.410;11.030;2023-04-10T14:12:10;98295.00;;;15.05;55.77
68226;BME280;55045;49.410;11.030;2023-04-10T14:15:14;98294.72;;;15.09;56.28
68226;BME280;55045;49.410;11.030;2023-04-10T14:18:17;98259.84;;;14.55;55.71
68226;BME280;55045;49.410;11.030;2023-04-10T14:21:21;98276.13;;;14.87;56.94
68226;BME280;55045;49.410;11.030;2023-04-10T14:24:24;98268.28;;;14.87;56.96
68226;BME280;55045;49.410;11.030;2023-04-10T14:27:27;98274.34;;;14.87;53.27
68226;BME280;55045;49.410;11.030;2023-04-10T14:30:32;98269.94;;;15.02;54.85
68226;BME280;55045;49.410;11.030;2023-04-10T14:33:35;98261.94;;;15.18;60.17
68226;BME280;55045;49.410;11.030;2023-04-10T14:36:38;98262.19;;;15.27;57.62
68226;BME280;55045;49.410;11.030;2023-04-10T14:39:41;98261.16;;;15.03;55.83
68226;BME280;55045;49.410;11.030;2023-04-10T14:42:44;98259.91;;;14.67;57.32
68226;BME280;55045;49.410;11.030;2023-04-10T14:45:49;98254.22;;;14.61;57.81
68226;BME280;55045;49.410;11.030;2023-04-10T14:48:52;98246.34;;;14.62;58.67
68226;BME280;55045;49.410;11.030;2023-04-10T14:51:55;98252.81;;;14.84;61.48
68226;BME280;55045;49.410;11.030;2023-04-10T14:54:58;98256.25;;;15.11;63.48
68226;BME280;55045;49.410;11.030;2023-04-10T14:58:02;98238.03;;;14.97;58.29
68226;BME280;55045;49.410;11.030;2023-04-10T15:01:09;98238.63;;;14.88;57.30
68226;BME280;55045;49.410;11.030;2023-04-10T15:04:13;98238.31;;;14.65;58.67
68226;BME280;55045;49.410;11.030;2023-04-10T15:07:16;98231.94;;;14.69;59.02
68226;BME280;55045;49.410;11.030;2023-04-10T15:10:19;98215.00;;;14.62;58.55
68226;BME280;55045;49.410;11.030;2023-04-10T15:13:23;98227.66;;;14.83;59.09
68226;BME280;55045;49.410;11.030;2023-04-10T15:16:28;98222.59;;;14.80;64.33
68226;BME280;55045;49.410;11.030;2023-04-10T15:19:32;98219.88;;;14.81;59.70
68226;BME280;55045;49.410;11.030;2023-04-10T15:22:35;98224.47;;;14.78;62.18
68226;BME280;55045;49.410;11.030;2023-04-10T15:25:39;98213.34;;;14.61;61.25
68226;BME280;55045;49.410;11.030;2023-04-10T15:28:43;98212.03;;;14.54;59.95
68226;BME280;55045;49.410;11.030;2023-04-10T15:34:58;98197.13;;;14.42;60.78
68226;BME280;55045;49.410;11.030;2023-04-10T15:38:05;98196.19;;;14.43;62.33
68226;BME280;55045;49.410;11.030;2023-04-10T15:41:11;98193.56;;;14.43;61.73
68226;BME280;55045;49.410;11.030;2023-04-10T15:44:16;98194.16;;;14.34;66.79
68226;BME280;55045;49.410;11.030;2023-04-10T15:47:19;98188.94;;;14.34;64.55
68226;BME280;55045;49.410;11.030;2023-04-10T15:50:23;98184.44;;;14.50;66.68
68226;BME280;55045;49.410;11.030;2023-04-10T15:53:27;98188.47;;;14.27;62.14
68226;BME280;55045;49.410;11.030;2023-04-10T15:56:31;98182.69;;;14.36;66.11
68226;BME280;55045;49.410;11.030;2023-04-10T15:59:35;98177.75;;;14.32;62.17
68226;BME280;55045;49.410;11.030;2023-04-10T16:02:41;98179.06;;;14.25;67.05
68226;BME280;55045;49.410;11.030;2023-04-10T16:05:47;98180.06;;;14.36;63.28
68226;BME280;55045;49.410;11.030;2023-04-10T16:08:51;98184.28;;;14.25;63.10
68226;BME280;55045;49.410;11.030;2023-04-10T16:11:54;98181.50;;;14.13;63.47
68226;BME280;55045;49.410;11.030;2023-04-10T16:14:58;98181.09;;;14.20;66.13
68226;BME280;55045;49.410;11.030;2023-04-10T16:18:03;98182.59;;;14.09;64.84
68226;BME280;55045;49.410;11.030;2023-04-10T16:21:08;98170.31;;;13.97;64.62
68226;BME280;55045;49.410;11.030;2023-04-10T16:24:11;98177.38;;;14.09;68.24
68226;BME280;55045;49.410;11.030;2023-04-10T16:27:15;98163.06;;;14.02;70.63
68226;BME280;55045;49.410;11.030;2023-04-10T16:30:18;98162.31;;;13.86;68.18